createdAt,value
2023-03-17T00:12:37.281Z,98289.55
2023-03-17T00:16:17.652Z,98288.33
2023-03-17T00:19:51.155Z,98283.48
2023-03-17T00:23:26.200Z,98282.60
2023-03-17T00:27:00.114Z,98280.89
2023-03-17T00:36:55.255Z,98286.38
2023-03-17T00:40:31.718Z,98290.80
2023-03-17T00:44:05.782Z,98294.64
2023-03-17T01:07:53.223Z,98278.71
2023-03-17T01:11:15.280Z,98277.63
2023-03-17T01:14:48.646Z,98282.55
2023-03-17T01:18:23.780Z,98284.80
2023-03-17T01:28:15.043Z,98281.09
2023-03-17T01:31:50.842Z,98274.55
2023-03-17T01:35:24.791Z,98272.67
2023-03-17T01:38:58.008Z,98276.05
2023-03-17T01:56:08.382Z,98255.09
2023-03-17T01:59:48.322Z,98255.23
2023-03-17T02:03:21.911Z,98254.90
2023-03-17T02:06:58.800Z,98254.44
2023-03-17T02:23:48.729Z,98243.83
2023-03-17T02:27:28.141Z,98238.19
2023-03-17T02:31:01.576Z,98237.02
2023-03-17T02:48:39.265Z,98237.80
2023-03-17T02:52:13.718Z,98241.84
2023-03-17T02:55:39.874Z,98239.58
2023-03-17T02:59:13.686Z,98243.17
2023-03-17T03:03:12.399Z,98244.07
2023-03-17T03:16:34.358Z,98247.23
2023-03-17T03:20:13.407Z,98248.31
2023-03-17T03:40:31.592Z,98243.85
2023-03-17T03:44:05.306Z,98246.59
2023-03-17T04:00:58.929Z,98254.29
2023-03-17T04:04:32.263Z,98260.29
2023-03-17T04:11:31.407Z,98257.21
2023-03-17T04:14:04.543Z,98261.13
2023-03-17T04:16:37.912Z,98263.39
2023-03-17T04:19:11.529Z,98264.48
2023-03-17T04:21:45.072Z,98263.65
2023-03-17T04:24:17.912Z,98261.34
2023-03-17T04:26:50.761Z,98261.39
2023-03-17T04:29:24.710Z,98248.64
2023-03-17T04:31:57.801Z,98234.48
2023-03-17T04:34:30.873Z,98239.27
2023-03-17T04:37:03.702Z,98250.20
2023-03-17T04:40:02.996Z,98254.84
2023-03-17T04:42:36.471Z,98255.93
2023-03-17T04:45:12.872Z,98267.30
2023-03-17T04:47:48.316Z,98276.95
2023-03-17T04:50:21.259Z,98272.83
2023-03-17T04:52:54.231Z,98263.77
2023-03-17T04:55:27.841Z,98270.11
2023-03-17T04:59:01.763Z,98265.55
2023-03-17T05:12:31.609Z,98262.76
2023-03-17T05:15:05.798Z,98254.91
2023-03-17T05:17:38.572Z,98261.92
2023-03-17T05:20:14.763Z,98263.61
2023-03-17T05:22:47.882Z,98265.20
2023-03-17T05:25:21.451Z,98265.26
2023-03-17T05:28:54.845Z,98271.05
2023-03-17T05:32:28.146Z,98267.48
2023-03-17T05:36:03.122Z,98270.20
2023-03-17T05:42:35.982Z,98279.04
2023-03-17T05:45:11.085Z,98278.04
2023-03-17T05:47:44.621Z,98279.52
2023-03-17T05:50:18.321Z,98279.05
2023-03-17T05:52:55.793Z,98275.55
2023-03-17T05:55:29.693Z,98276.47
2023-03-17T05:58:05.771Z,98277.56
2023-03-17T06:00:39.788Z,98278.60
2023-03-17T06:03:10.823Z,98285.23
2023-03-17T06:05:43.714Z,98284.59
2023-03-17T06:08:17.478Z,98281.31
2023-03-17T06:10:50.997Z,98283.96
2023-03-17T06:14:26.994Z,98271.98
2023-03-17T06:24:59.276Z,98284.48
2023-03-17T06:27:32.683Z,98283.43
2023-03-17T06:30:08.686Z,98286.88
2023-03-17T06:32:42.126Z,98289.45
2023-03-17T06:35:15.204Z,98289.86
2023-03-17T06:37:48.234Z,98296.98
2023-03-17T06:40:22.273Z,98296.81
2023-03-17T06:42:54.945Z,98300.98
2023-03-17T06:45:28.424Z,98308.26
2023-03-17T06:48:01.984Z,98297.58
2023-03-17T06:50:33.830Z,98291.81
2023-03-17T06:53:06.411Z,98286.02
2023-03-17T06:55:39.835Z,98280.13
2023-03-17T06:58:13.620Z,98286.59
2023-03-17T07:00:45.966Z,98290.80
2023-03-17T07:03:18.803Z,98281.48
2023-03-17T07:05:51.995Z,98288.39
2023-03-17T07:08:25.146Z,98290.10
2023-03-17T07:11:00.396Z,98282.19
2023-03-17T07:13:37.591Z,98282.73
2023-03-17T07:16:13.348Z,98287.09
2023-03-17T07:18:46.579Z,98279.31
2023-03-17T07:21:19.199Z,98276.73
2023-03-17T07:23:51.688Z,98279.23
2023-03-17T07:26:26.159Z,98280.28
2023-03-17T07:29:01.312Z,98277.98
2023-03-17T07:31:34.383Z,98276.84
2023-03-17T07:34:07.376Z,98283.67
2023-03-17T07:36:40.802Z,98284.95
2023-03-17T07:39:14.481Z,98281.61
2023-03-17T07:41:53.167Z,98285.14
2023-03-17T07:44:27.814Z,98280.20
2023-03-17T07:47:01.370Z,98279.31
2023-03-17T07:49:41.595Z,98280.74
2023-03-17T07:52:16.568Z,98278.57
2023-03-17T07:54:49.040Z,98275.80
2023-03-17T07:57:22.504Z,98266.74
2023-03-17T07:59:55.682Z,98267.52
2023-03-17T08:02:28.885Z,98275.10
2023-03-17T08:05:02.552Z,98276.96
2023-03-17T08:07:36.753Z,98276.39
2023-03-17T08:10:23.246Z,98277.08
2023-03-17T08:12:56.964Z,98279.99
2023-03-17T08:15:31.308Z,98279.13
2023-03-17T08:18:04.120Z,98282.41
2023-03-17T08:20:37.515Z,98280.66
2023-03-17T08:23:10.689Z,98278.98
2023-03-17T08:26:07.469Z,98279.13
2023-03-17T08:29:41.118Z,98281.34
2023-03-17T08:33:14.960Z,98277.42
2023-03-17T08:36:34.103Z,98274.72
2023-03-17T08:40:18.763Z,98276.61
2023-03-17T08:42:53.129Z,98278.19
2023-03-17T08:45:26.080Z,98271.58
2023-03-17T08:47:58.725Z,98273.34
2023-03-17T08:50:31.928Z,98271.65
2023-03-17T08:53:05.053Z,98269.91
2023-03-17T08:55:39.330Z,98265.70
2023-03-17T08:59:15.296Z,98268.17
2023-03-17T09:02:51.761Z,98266.98
2023-03-17T09:13:04.433Z,98276.03
2023-03-17T09:15:38.548Z,98273.64
2023-03-17T09:18:11.815Z,98275.38
2023-03-17T09:20:43.129Z,98270.92
2023-03-17T09:23:16.906Z,98261.17
2023-03-17T09:25:47.603Z,98263.92
2023-03-17T09:28:20.589Z,98261.99
2023-03-17T09:30:54.059Z,98256.11
2023-03-17T09:33:27.627Z,98254.59
2023-03-17T09:36:02.612Z,98260.81
2023-03-17T09:38:36.285Z,98253.45
2023-03-17T09:41:30.756Z,98241.75
2023-03-17T09:45:41.122Z,98254.98
2023-03-17T09:49:21.368Z,98252.08
2023-03-17T10:02:57.835Z,98234.32
2023-03-17T10:06:37.310Z,98231.97
2023-03-17T10:10:17.131Z,98229.34
2023-03-17T10:13:29.282Z,98222.95
2023-03-17T10:16:03.963Z,98225.01
2023-03-17T10:18:46.063Z,98217.55
2023-03-17T10:21:19.475Z,98212.96
2023-03-17T10:23:49.793Z,98218.74
2023-03-17T10:26:32.435Z,98210.20
2023-03-17T10:29:04.305Z,98202.05
2023-03-17T10:31:37.626Z,98205.51
2023-03-17T10:34:18.115Z,98212.10
2023-03-17T10:36:51.385Z,98213.03
2023-03-17T10:39:23.505Z,98213.83
2023-03-17T10:41:59.684Z,98204.45
2023-03-17T10:44:44.426Z,98204.41
2023-03-17T10:47:32.142Z,98200.61
2023-03-17T10:50:18.034Z,98197.52
2023-03-17T10:52:52.579Z,98195.08
2023-03-17T10:56:00.854Z,98192.96
2023-03-17T10:59:32.902Z,98189.23
2023-03-17T11:03:23.097Z,98180.24
2023-03-17T11:06:39.752Z,98175.83
2023-03-17T11:10:23.854Z,98167.48
2023-03-17T11:13:17.883Z,98163.52
2023-03-17T11:15:54.182Z,98173.25
2023-03-17T11:18:30.995Z,98171.69
2023-03-17T11:21:05.757Z,98174.86
2023-03-17T11:23:44.193Z,98169.38
2023-03-17T11:26:41.375Z,98167.67
2023-03-17T11:30:21.344Z,98164.17
2023-03-17T11:33:58.708Z,98159.75
2023-03-17T11:37:48.574Z,98158.63
2023-03-17T11:41:42.315Z,98154.19
2023-03-17T11:44:27.715Z,98146.20
2023-03-17T11:47:08.884Z,98144.77
2023-03-17T11:49:40.575Z,98135.09
2023-03-17T11:52:22.360Z,98130.84
2023-03-17T11:55:04.195Z,98122.52
2023-03-17T11:57:43.065Z,98125.73
2023-03-17T12:00:19.225Z,98125.63
2023-03-17T12:02:56.065Z,98118.56
2023-03-17T12:05:28.130Z,98120.70
2023-03-17T12:08:01.133Z,98118.67
2023-03-17T12:10:40.315Z,98115.77
2023-03-17T12:13:17.696Z,98116.73
2023-03-17T12:16:54.084Z,98102.46
2023-03-17T12:20:34.681Z,98091.81
2023-03-17T12:24:12.360Z,98089.42
2023-03-17T12:27:50.639Z,98092.10
2023-03-17T12:30:29.217Z,98095.94
2023-03-17T12:33:11.740Z,98092.31
2023-03-17T12:35:42.127Z,98088.05
2023-03-17T12:38:17.812Z,98087.61
2023-03-17T12:41:23.506Z,98082.69
2023-03-17T12:45:15.019Z,98078.35
2023-03-17T12:49:06.714Z,98077.55
2023-03-17T12:52:45.814Z,98084.56
2023-03-17T12:56:22.421Z,98079.89
2023-03-17T12:58:54.360Z,98076.91
2023-03-17T13:01:33.060Z,98070.54
2023-03-17T13:04:26.495Z,98060.52
2023-03-17T13:07:09.762Z,98048.64
2023-03-17T13:09:50.375Z,98045.15
2023-03-17T13:13:06.100Z,98052.05
2023-03-17T13:16:40.873Z,98038.70
2023-03-17T13:20:20.321Z,98034.23
2023-03-17T13:23:58.197Z,98032.25
2023-03-17T13:27:46.458Z,98027.31
2023-03-17T13:31:36.597Z,98028.27
2023-03-17T13:45:18.154Z,98021.66
2023-03-17T13:48:52.345Z,98019.52
2023-03-17T13:52:32.807Z,98017.35
2023-03-17T13:59:13.508Z,98006.57
2023-03-17T14:01:53.768Z,98009.08
2023-03-17T14:04:30.927Z,98010.90
2023-03-17T14:07:12.983Z,98015.95
2023-03-17T14:09:46.625Z,98014.48
2023-03-17T14:12:26.820Z,98006.76
2023-03-17T14:16:07.896Z,98013.16
2023-03-17T14:23:06.983Z,97996.45
2023-03-17T14:26:41.621Z,97992.14
2023-03-17T14:29:19.642Z,97984.77
2023-03-17T14:32:00.731Z,97980.09
2023-03-17T14:34:33.836Z,97977.48
2023-03-17T14:37:08.034Z,97975.17
2023-03-17T14:39:50.061Z,97970.84
2023-03-17T14:42:28.001Z,97970.91
2023-03-17T14:46:08.442Z,97974.70
2023-03-17T14:49:35.472Z,97973.20
2023-03-17T14:53:17.243Z,97966.90
2023-03-17T14:57:00.344Z,97962.39
2023-03-17T14:59:36.054Z,97959.02
2023-03-17T15:02:24.253Z,97958.67
2023-03-17T15:04:59.840Z,97950.79
2023-03-17T15:07:41.267Z,97941.95
2023-03-17T15:10:25.065Z,97938.80
2023-03-17T15:13:07.749Z,97937.95
2023-03-17T15:16:44.246Z,97940.00
2023-03-17T15:20:21.729Z,97946.38
2023-03-17T15:23:56.473Z,97951.28
2023-03-17T15:27:30.459Z,97956.16
2023-03-17T15:30:06.694Z,97953.65
2023-03-17T15:32:39.821Z,97946.52
2023-03-17T15:35:15.424Z,97947.80
2023-03-17T15:37:48.998Z,97943.39
2023-03-17T15:40:22.679Z,97943.55
2023-03-17T15:42:55.514Z,97936.70
2023-03-17T15:46:32.712Z,97935.41
2023-03-17T15:50:24.336Z,97934.22
2023-03-17T16:07:19.238Z,97895.66
2023-03-17T16:10:53.439Z,97898.77
2023-03-17T16:14:28.418Z,97893.31
2023-03-17T16:18:04.618Z,97894.27
2023-03-17T16:21:39.455Z,97883.54
2023-03-17T16:25:05.397Z,97886.92
2023-03-17T16:28:21.746Z,97894.52
2023-03-17T16:30:56.130Z,97895.85
2023-03-17T16:33:35.390Z,97899.10
2023-03-17T16:36:08.712Z,97905.17
2023-03-17T16:38:41.719Z,97913.33
2023-03-17T16:41:25.247Z,97916.21
2023-03-17T16:44:52.058Z,97915.02
2023-03-17T16:48:25.696Z,97913.93
2023-03-17T16:51:56.341Z,97912.77
2023-03-17T16:55:30.916Z,97914.66
2023-03-17T16:59:05.162Z,97910.81
2023-03-17T17:02:39.053Z,97911.90
2023-03-17T17:06:06.314Z,97918.60
2023-03-17T17:09:44.756Z,97923.66
2023-03-17T17:13:17.141Z,97925.41
2023-03-17T17:15:50.730Z,97927.52
2023-03-17T17:18:22.691Z,97932.19
2023-03-17T17:20:57.090Z,97935.34
2023-03-17T17:23:30.944Z,97942.02
2023-03-17T17:26:03.493Z,97943.07
2023-03-17T17:28:36.707Z,97935.90
2023-03-17T17:31:10.067Z,97934.04
2023-03-17T17:33:43.792Z,97931.97
2023-03-17T17:36:18.717Z,97930.43
2023-03-17T17:38:52.429Z,97931.48
2023-03-17T17:41:25.297Z,97929.94
2023-03-17T17:43:57.946Z,97930.84
2023-03-17T17:46:33.687Z,97932.91
2023-03-17T17:49:07.146Z,97934.46
2023-03-17T17:51:42.614Z,97933.45
2023-03-17T17:54:16.066Z,97935.34
2023-03-17T17:57:13.835Z,97934.65
2023-03-17T17:59:47.552Z,97935.89
2023-03-17T18:02:21.104Z,97938.30
2023-03-17T18:05:16.985Z,97937.95
2023-03-17T18:07:51.083Z,97940.23
2023-03-17T18:10:26.922Z,97942.98
2023-03-17T18:13:08.481Z,97941.29
2023-03-17T18:16:50.425Z,97937.40
2023-03-17T18:20:31.058Z,97931.39
2023-03-17T18:24:16.174Z,97933.79
2023-03-17T18:27:58.060Z,97931.41
2023-03-17T18:44:50.424Z,97928.91
2023-03-17T18:47:32.912Z,97929.10
2023-03-17T18:50:12.237Z,97932.34
2023-03-17T18:52:51.901Z,97930.30
2023-03-17T18:55:32.903Z,97929.27
2023-03-17T18:58:14.511Z,97926.55
2023-03-17T19:00:53.266Z,97919.20
2023-03-17T19:03:33.595Z,97914.05
2023-03-17T19:06:18.991Z,97911.52
2023-03-17T19:08:56.976Z,97910.83
2023-03-17T19:11:36.696Z,97912.91
2023-03-17T19:14:16.660Z,97914.11
2023-03-17T19:16:56.646Z,97916.34
2023-03-17T19:19:35.836Z,97915.16
2023-03-17T19:22:17.720Z,97913.44
2023-03-17T19:24:52.430Z,97916.35
2023-03-17T19:27:25.316Z,97910.38
2023-03-17T19:31:04.310Z,97905.07
2023-03-17T19:34:42.289Z,97902.33
2023-03-17T19:38:15.661Z,97896.16
2023-03-17T19:44:40.541Z,97894.45
2023-03-17T19:47:13.223Z,97894.79
2023-03-17T19:49:46.542Z,97895.65
2023-03-17T19:52:19.480Z,97899.42
2023-03-17T19:54:57.482Z,97902.13
2023-03-17T19:57:31.650Z,97892.90
2023-03-17T20:00:06.139Z,97890.67
2023-03-17T20:02:48.202Z,97894.78
2023-03-17T20:05:26.870Z,97895.27
2023-03-17T20:08:28.750Z,97896.80
2023-03-17T20:11:08.037Z,97898.67
2023-03-17T20:14:08.367Z,97890.13
2023-03-17T20:17:51.942Z,97893.88
2023-03-17T20:21:30.371Z,97895.42
2023-03-17T20:25:10.348Z,97903.08
2023-03-17T20:28:59.894Z,97905.63
2023-03-17T20:31:34.271Z,97899.81
2023-03-17T20:34:08.200Z,97903.58
2023-03-17T20:36:43.504Z,97902.19
2023-03-17T20:39:20.233Z,97895.14
2023-03-17T20:41:57.902Z,97889.70
2023-03-17T20:44:33.626Z,97886.77
2023-03-17T20:47:07.278Z,97887.95
2023-03-17T20:49:40.785Z,97888.80
2023-03-17T20:52:15.362Z,97887.94
2023-03-17T20:54:53.622Z,97885.19
2023-03-17T20:57:26.909Z,97885.19
2023-03-17T21:01:03.246Z,97885.99
2023-03-17T21:04:10.672Z,97882.06
2023-03-17T21:08:03.616Z,97882.21
2023-03-17T21:14:41.462Z,97877.41
2023-03-17T21:17:14.778Z,97876.56
2023-03-17T21:19:47.968Z,97874.31
2023-03-17T21:22:20.897Z,97868.85
2023-03-17T21:24:54.294Z,97872.10
2023-03-17T21:27:27.288Z,97868.14
2023-03-17T21:31:00.835Z,97870.50
2023-03-17T21:34:28.752Z,97867.58
2023-03-17T21:38:06.082Z,97867.19
2023-03-17T21:44:52.546Z,97865.77
2023-03-17T21:47:25.116Z,97867.80
2023-03-17T21:50:00.776Z,97869.15
2023-03-17T21:52:33.830Z,97867.10
2023-03-17T21:55:11.598Z,97873.58
2023-03-17T21:57:44.659Z,97872.21
2023-03-17T22:00:19.454Z,97874.23
2023-03-17T22:02:53.016Z,97875.80
2023-03-17T22:05:24.175Z,97873.04
2023-03-17T22:07:57.641Z,97875.36
2023-03-17T22:10:30.842Z,97879.30
2023-03-17T22:13:06.072Z,97882.71
2023-03-17T22:15:39.009Z,97879.45
2023-03-17T22:18:11.901Z,97878.55
2023-03-17T22:20:45.291Z,97877.55
2023-03-17T22:23:16.651Z,97880.92
2023-03-17T22:25:50.101Z,97878.55
2023-03-17T22:28:25.049Z,97874.80
2023-03-17T22:32:18.871Z,97869.81
2023-03-17T22:35:55.930Z,97868.25
2023-03-17T22:42:48.040Z,97865.26
2023-03-17T22:45:21.477Z,97862.80
2023-03-17T22:47:57.425Z,97860.08
2023-03-17T22:50:33.809Z,97859.54
2023-03-17T22:53:07.306Z,97860.32
2023-03-17T22:55:41.835Z,97854.40
2023-03-17T22:58:14.824Z,97855.55
2023-03-17T23:01:49.147Z,97849.17
2023-03-17T23:15:02.226Z,97845.56
2023-03-17T23:17:35.776Z,97847.47
2023-03-17T23:20:12.792Z,97843.52
2023-03-17T23:22:47.399Z,97840.13
2023-03-17T23:25:22.059Z,97840.80
2023-03-17T23:27:57.623Z,97844.20
2023-03-17T23:31:32.742Z,97848.68
2023-03-17T23:35:04.367Z,97843.58
2023-03-17T23:44:59.890Z,97844.12
2023-03-17T23:47:34.178Z,97834.83
2023-03-17T23:50:08.701Z,97834.98
2023-03-17T23:52:42.790Z,97835.66
2023-03-17T23:55:17.289Z,97835.82
2023-03-17T23:57:59.538Z,97834.97
